Terminal Aerodrome Forecast
Issued by NWS

Home | Current Version | Previous Version | Text Only | Print | Product List | Glossary On
Versions: 1 2 3 4 5 6 7 8 9 10 11 12 13 14 15 16 17 18 19 20 21 22 23 24 25 26
000
FTUS46 KLOX 171733
TAFLAX
TAF
KLAX 171733Z 1718/1824 01010G17KT P6SM FEW200 WS010/03035KT
     FM172100 27008KT P6SM SKC
     FM180300 VRB03KT P6SM SKC
     FM181500 06007KT P6SM SKC
     FM182000 26008KT P6SM SKC=

USA.gov is the U.S. government's official web portal to all federal, state and local government web resources and services.